Time;durP1;ratioP1;P1;durP2;ratioP2;P2;SDS_P1;SDS_P2;PMS_P1;PMS_P2;Temp;Humidity;BMP_temperature;BMP_pressure;BME280_temperature;BME280_humidity;BME280_pressure;Samples;Min_cycle;Max_cycle;Signal;HPM_P1;HPM_P2
2023/06/18 00:01:45;;;;;;;;;27.25;25.75;;;;;;;;5064393;28;8791;-85
2023/06/18 00:04:12;;;;;;;;;21.25;21.25;;;;;;;;5052528;28;8822;-85
2023/06/18 00:06:39;;;;;;;;;22.75;22.75;;;;;;;;5056314;28;9792;-86
2023/06/18 00:09:07;;;;;;;;;22.00;22.00;;;;;;;;5054530;28;8841;-84
2023/06/18 00:11:36;;;;;;;;;22.25;20.50;;;;;;;;5050098;28;8849;-84
2023/06/18 00:14:06;;;;;;;;;26.25;25.25;;;;;;;;5048970;28;9628;-86
2023/06/18 00:16:35;;;;;;;;;21.50;20.75;;;;;;;;5049137;28;8980;-86
2023/06/18 00:19:02;;;;;;;;;23.00;21.25;;;;;;;;5048172;28;8849;-85
2023/06/18 00:21:29;;;;;;;;;23.25;22.00;;;;;;;;5049092;28;8862;-85
2023/06/18 00:23:59;;;;;;;;;22.00;21.75;;;;;;;;5049460;28;8976;-85
2023/06/18 00:26:27;;;;;;;;;21.00;21.00;;;;;;;;5049827;28;8873;-85
2023/06/18 00:28:54;;;;;;;;;22.25;22.25;;;;;;;;5048717;28;8861;-88
2023/06/18 00:31:21;;;;;;;;;22.40;20.80;;;;;;;;5049135;28;8908;-86
2023/06/18 00:33:50;;;;;;;;;26.75;24.75;;;;;;;;5053113;28;8881;-85
2023/06/18 00:36:19;;;;;;;;;21.25;21.25;;;;;;;;5057847;28;8862;-85
2023/06/18 00:38:47;;;;;;;;;26.75;25.00;;;;;;;;5051905;28;9004;-85
2023/06/18 00:41:16;;;;;;;;;25.00;23.50;;;;;;;;5060179;28;8855;-83
2023/06/18 00:43:43;;;;;;;;;27.25;25.50;;;;;;;;5062320;28;8831;-85
2023/06/18 00:46:12;;;;;;;;;24.25;23.00;;;;;;;;5051199;28;8895;-86
2023/06/18 00:48:40;;;;;;;;;24.50;24.50;;;;;;;;5058518;28;9154;-85
2023/06/18 00:51:10;;;;;;;;;21.75;21.25;;;;;;;;5055752;28;8863;-86
2023/06/18 00:53:37;;;;;;;;;24.75;23.25;;;;;;;;5049637;28;8865;-87
2023/06/18 00:56:05;;;;;;;;;27.00;24.75;;;;;;;;5043916;28;8865;-84
2023/06/18 00:58:33;;;;;;;;;23.00;22.50;;;;;;;;5049910;28;8854;-88
2023/06/18 01:01:00;;;;;;;;;26.00;26.00;;;;;;;;5055023;28;8867;-91
2023/06/18 01:03:27;;;;;;;;;24.75;24.75;;;;;;;;5051587;28;8861;-88
2023/06/18 01:05:58;;;;;;;;;26.00;25.00;;;;;;;;5050532;28;8968;-89
2023/06/18 01:08:28;;;;;;;;;21.50;21.50;;;;;;;;5049897;28;8849;-90
2023/06/18 01:11:02;;;;;;;;;22.50;22.50;;;;;;;;5049989;28;8825;-88
2023/06/18 01:13:36;;;;;;;;;27.25;24.00;;;;;;;;5059940;28;8854;-90
2023/06/18 01:16:06;;;;;;;;;23.50;23.50;;;;;;;;5050747;28;8950;-91
2023/06/18 01:18:39;;;;;;;;;23.00;21.50;;;;;;;;5051565;28;8850;-90
2023/06/18 01:21:10;;;;;;;;;18.25;18.25;;;;;;;;5055243;28;8855;-88
2023/06/18 01:23:49;;;;;;;;;25.50;23.00;;;;;;;;5057865;28;8857;-89
2023/06/18 01:26:20;;;;;;;;;22.50;21.75;;;;;;;;5052013;28;8897;-89
2023/06/18 01:28:50;;;;;;;;;21.00;21.00;;;;;;;;5052620;28;8853;-88
2023/06/18 01:31:21;;;;;;;;;21.25;21.25;;;;;;;;5036385;28;8913;-89
2023/06/18 01:33:51;;;;;;;;;21.00;19.50;;;;;;;;5056943;28;8857;-89
2023/06/18 01:36:24;;;;;;;;;23.00;23.00;;;;;;;;5053177;28;8862;-88
2023/06/18 01:38:58;;;;;;;;;27.00;25.00;;;;;;;;5049820;28;8853;-88
2023/06/18 01:41:27;;;;;;;;;25.75;24.00;;;;;;;;5045897;28;8968;-89
2023/06/18 01:43:58;;;;;;;;;20.00;20.00;;;;;;;;5061480;28;8979;-88
2023/06/18 01:46:31;;;;;;;;;20.25;20.25;;;;;;;;5050350;28;8901;-88
2023/06/18 01:49:00;;;;;;;;;23.50;22.25;;;;;;;;5049340;28;8869;-88
2023/06/18 01:51:30;;;;;;;;;24.00;23.50;;;;;;;;5037747;28;8932;-88
2023/06/18 01:54:00;;;;;;;;;23.75;22.25;;;;;;;;5049730;28;8897;-89
2023/06/18 01:56:28;;;;;;;;;23.75;22.50;;;;;;;;5044896;28;8892;-91
2023/06/18 01:58:56;;;;;;;;;24.25;23.50;;;;;;;;5049431;28;9647;-90
2023/06/18 02:01:26;;;;;;;;;26.25;24.75;;;;;;;;5039350;28;8938;-89
2023/06/18 02:03:53;;;;;;;;;24.25;24.25;;;;;;;;5054218;28;8976;-89
2023/06/18 02:06:22;;;;;;;;;25.25;23.50;;;;;;;;5049985;28;8870;-89
2023/06/18 02:08:52;;;;;;;;;24.00;22.50;;;;;;;;5054393;28;8915;-89
2023/06/18 02:11:21;;;;;;;;;30.00;28.25;;;;;;;;5052200;28;8887;-89
2023/06/18 02:13:49;;;;;;;;;24.50;23.00;;;;;;;;5054167;28;8881;-90
2023/06/18 02:16:16;;;;;;;;;27.00;24.00;;;;;;;;5053349;28;8942;-90
2023/06/18 02:18:43;;;;;;;;;24.00;22.00;;;;;;;;5054476;28;8878;-90
2023/06/18 02:21:11;;;;;;;;;23.25;22.75;;;;;;;;5053128;28;9564;-93
2023/06/18 02:23:38;;;;;;;;;26.50;26.50;;;;;;;;5052408;28;8873;-90
2023/06/18 02:26:08;;;;;;;;;28.50;26.00;;;;;;;;5052919;28;9004;-88
2023/06/18 02:28:38;;;;;;;;;24.50;23.00;;;;;;;;5053640;28;8857;-89
2023/06/18 02:31:06;;;;;;;;;23.25;19.75;;;;;;;;5052074;28;8817;-89
2023/06/18 02:33:34;;;;;;;;;23.50;23.50;;;;;;;;5053227;28;8863;-89
2023/06/18 02:36:01;;;;;;;;;24.50;24.50;;;;;;;;5052907;28;8944;-88
2023/06/18 02:38:29;;;;;;;;;22.50;22.50;;;;;;;;5052812;28;8846;-89
2023/06/18 02:40:56;;;;;;;;;25.00;22.75;;;;;;;;5052970;28;8992;-89
2023/06/18 02:43:24;;;;;;;;;23.75;23.75;;;;;;;;5053038;28;8845;-89
2023/06/18 02:45:53;;;;;;;;;20.50;20.50;;;;;;;;5062880;28;8959;-89
2023/06/18 02:48:21;;;;;;;;;23.25;23.25;;;;;;;;5053346;28;8858;-87
2023/06/18 02:50:48;;;;;;;;;25.25;25.25;;;;;;;;5053429;28;8885;-88
2023/06/18 02:53:16;;;;;;;;;24.50;22.75;;;;;;;;5053991;28;8857;-87
2023/06/18 02:55:43;;;;;;;;;24.00;24.00;;;;;;;;5054754;28;8862;-87
2023/06/18 02:58:18;;;;;;;;;22.50;22.00;;;;;;;;5054265;28;8869;-89
2023/06/18 03:00:46;;;;;;;;;27.25;25.50;;;;;;;;5053566;28;8833;-90
2023/06/18 03:03:14;;;;;;;;;21.75;21.75;;;;;;;;5044718;28;8853;-90
2023/06/18 03:05:42;;;;;;;;;25.25;25.25;;;;;;;;5054409;28;8857;-89
2023/06/18 03:08:09;;;;;;;;;22.50;21.25;;;;;;;;5064076;28;8865;-88
2023/06/18 03:10:36;;;;;;;;;14.00;12.75;;;;;;;;5058290;28;8903;-88
2023/06/18 03:13:04;;;;;;;;;23.75;23.75;;;;;;;;5052882;28;8926;-87
2023/06/18 03:15:31;;;;;;;;;20.75;20.75;;;;;;;;5039548;28;8841;-88
2023/06/18 03:17:58;;;;;;;;;23.50;22.50;;;;;;;;5052192;28;8885;-88
2023/06/18 03:20:28;;;;;;;;;17.25;17.25;;;;;;;;5051272;28;8837;-86
2023/06/18 03:22:55;;;;;;;;;21.50;21.50;;;;;;;;5046075;28;8861;-88
2023/06/18 03:25:22;;;;;;;;;19.00;18.00;;;;;;;;5051690;28;8876;-89
2023/06/18 03:27:50;;;;;;;;;21.50;21.50;;;;;;;;5051549;28;8849;-88
2023/06/18 03:30:18;;;;;;;;;26.50;22.00;;;;;;;;5050962;28;8963;-88
2023/06/18 03:32:45;;;;;;;;;22.00;22.00;;;;;;;;5052432;28;8834;-88
2023/06/18 03:35:13;;;;;;;;;21.50;21.50;;;;;;;;5051858;28;8838;-88
2023/06/18 03:37:44;;;;;;;;;23.25;22.75;;;;;;;;5051533;28;8864;-89
2023/06/18 03:40:13;;;;;;;;;26.75;23.50;;;;;;;;5051829;28;8887;-89
2023/06/18 03:42:41;;;;;;;;;29.25;28.50;;;;;;;;5051324;28;8843;-88
2023/06/18 03:45:09;;;;;;;;;25.25;24.50;;;;;;;;5068110;28;8989;-88
2023/06/18 03:47:36;;;;;;;;;24.25;23.00;;;;;;;;5051929;28;8980;-89
2023/06/18 03:50:04;;;;;;;;;22.25;20.00;;;;;;;;5067383;28;8850;-87
2023/06/18 03:52:32;;;;;;;;;19.25;19.25;;;;;;;;5060960;28;8850;-89
2023/06/18 03:55:01;;;;;;;;;27.25;25.00;;;;;;;;5054303;28;8899;-88
2023/06/18 03:57:29;;;;;;;;;31.75;29.00;;;;;;;;5051704;28;8867;-87
2023/06/18 03:59:56;;;;;;;;;25.00;25.00;;;;;;;;5058652;28;8869;-88
2023/06/18 04:02:23;;;;;;;;;27.25;27.00;;;;;;;;5058213;28;8799;-88
2023/06/18 04:04:51;;;;;;;;;26.25;25.50;;;;;;;;5054404;28;8858;-87
2023/06/18 04:07:18;;;;;;;;;28.00;26.25;;;;;;;;5062235;28;9710;-88
2023/06/18 04:09:45;;;;;;;;;26.00;24.75;;;;;;;;5063152;28;8881;-87
2023/06/18 04:12:14;;;;;;;;;30.25;27.25;;;;;;;;5052655;28;8984;-87
2023/06/18 04:14:42;;;;;;;;;27.50;26.50;;;;;;;;5050542;28;8868;-87
2023/06/18 04:17:09;;;;;;;;;26.00;26.00;;;;;;;;5051331;28;9132;-87
2023/06/18 04:19:36;;;;;;;;;26.50;26.50;;;;;;;;5044551;28;8873;-86
2023/06/18 04:22:04;;;;;;;;;29.50;29.50;;;;;;;;5054295;28;8846;-88
2023/06/18 04:24:31;;;;;;;;;26.50;26.25;;;;;;;;5058666;28;8877;-88
2023/06/18 04:26:59;;;;;;;;;22.67;22.67;;;;;;;;5049809;28;8877;-86
2023/06/18 04:29:30;;;;;;;;;24.75;22.00;;;;;;;;5050715;28;8867;-86
2023/06/18 04:31:58;;;;;;;;;27.50;26.50;;;;;;;;5048404;28;8874;-87
2023/06/18 04:34:25;;;;;;;;;25.75;24.50;;;;;;;;5050457;28;8880;-87
2023/06/18 04:36:52;;;;;;;;;27.00;24.75;;;;;;;;5047572;28;8988;-87
2023/06/18 04:39:20;;;;;;;;;29.00;29.00;;;;;;;;5052749;28;8841;-85
2023/06/18 04:41:47;;;;;;;;;25.25;25.25;;;;;;;;5054130;28;8994;-86
2023/06/18 04:44:15;;;;;;;;;24.25;24.25;;;;;;;;5054611;28;8835;-85
2023/06/18 04:46:43;;;;;;;;;30.25;27.50;;;;;;;;5060307;28;8862;-86
2023/06/18 04:49:11;;;;;;;;;24.25;24.25;;;;;;;;5053724;28;8893;-84
2023/06/18 04:51:40;;;;;;;;;24.50;24.00;;;;;;;;5046611;28;8884;-86
2023/06/18 04:54:07;;;;;;;;;26.75;26.00;;;;;;;;5049132;28;8853;-86
2023/06/18 04:56:34;;;;;;;;;24.75;23.00;;;;;;;;5054045;28;8881;-86
2023/06/18 04:59:02;;;;;;;;;26.50;26.50;;;;;;;;5048308;28;8869;-85
2023/06/18 05:01:29;;;;;;;;;26.50;25.75;;;;;;;;5048310;28;8805;-88
2023/06/18 05:03:58;;;;;;;;;25.25;23.75;;;;;;;;5047519;28;8873;-87
2023/06/18 05:06:27;;;;;;;;;23.50;23.25;;;;;;;;5053229;28;8908;-87
2023/06/18 05:08:55;;;;;;;;;26.50;26.50;;;;;;;;5049604;28;8977;-90
2023/06/18 05:11:22;;;;;;;;;29.00;28.75;;;;;;;;5051374;28;8877;-86
2023/06/18 05:13:50;;;;;;;;;24.75;24.50;;;;;;;;5049993;28;8965;-89
2023/06/18 05:16:17;;;;;;;;;31.25;26.25;;;;;;;;5032002;28;8984;-89
2023/06/18 05:18:45;;;;;;;;;25.50;24.00;;;;;;;;5051281;28;8958;-87
2023/06/18 05:21:15;;;;;;;;;23.25;23.25;;;;;;;;5048638;28;8861;-88
2023/06/18 05:23:42;;;;;;;;;28.75;25.50;;;;;;;;5060297;28;8949;-87
2023/06/18 05:26:10;;;;;;;;;30.25;29.25;;;;;;;;5051845;28;8862;-87
2023/06/18 05:28:37;;;;;;;;;22.00;22.00;;;;;;;;5046827;28;8896;-87
2023/06/18 05:31:05;;;;;;;;;23.50;22.50;;;;;;;;5048445;28;8782;-89
2023/06/18 05:33:32;;;;;;;;;24.00;24.00;;;;;;;;5052650;28;9237;-88
2023/06/18 05:36:00;;;;;;;;;25.25;24.50;;;;;;;;5042980;28;8988;-86
2023/06/18 05:38:28;;;;;;;;;28.67;27.00;;;;;;;;5050989;28;8865;-87
2023/06/18 05:40:55;;;;;;;;;23.50;23.50;;;;;;;;5049739;28;9004;-88
2023/06/18 05:43:23;;;;;;;;;23.50;23.00;;;;;;;;5049783;28;8904;-95
2023/06/18 05:45:50;;;;;;;;;22.75;21.75;;;;;;;;5062467;28;9824;-89
2023/06/18 05:48:17;;;;;;;;;25.00;25.00;;;;;;;;5053409;28;8868;-88
2023/06/18 05:50:45;;;;;;;;;26.50;24.00;;;;;;;;5054249;28;8968;-91
2023/06/18 05:53:12;;;;;;;;;23.75;22.25;;;;;;;;5053395;28;8872;-90
2023/06/18 05:55:43;;;;;;;;;23.50;23.00;;;;;;;;5050291;28;8849;-87
2023/06/18 05:58:10;;;;;;;;;22.50;21.00;;;;;;;;5051674;28;8984;-85
2023/06/18 06:00:37;;;;;;;;;25.50;25.50;;;;;;;;5053087;28;8824;-93
2023/06/18 06:03:04;;;;;;;;;25.00;25.00;;;;;;;;5045736;28;8850;-82
2023/06/18 06:05:32;;;;;;;;;29.25;24.75;;;;;;;;5065264;28;8878;-88
2023/06/18 06:07:59;;;;;;;;;23.50;23.25;;;;;;;;5065469;28;8831;-89
2023/06/18 06:10:29;;;;;;;;;23.00;21.75;;;;;;;;5044227;28;8847;-83
2023/06/18 06:12:58;;;;;;;;;27.75;26.00;;;;;;;;5057001;28;8940;-77
2023/06/18 06:15:25;;;;;;;;;25.50;24.25;;;;;;;;5056193;28;8843;-87
2023/06/18 06:17:52;;;;;;;;;22.50;22.50;;;;;;;;5045868;28;8870;-86
2023/06/18 06:20:19;;;;;;;;;23.50;23.25;;;;;;;;5057926;28;8883;-83
2023/06/18 06:22:46;;;;;;;;;24.75;24.75;;;;;;;;5056246;28;8853;-81
2023/06/18 06:25:14;;;;;;;;;22.00;22.00;;;;;;;;5055390;28;9639;-85
2023/06/18 06:27:43;;;;;;;;;25.00;23.50;;;;;;;;5052230;28;8904;-90
2023/06/18 06:30:13;;;;;;;;;22.25;22.25;;;;;;;;5051626;28;8842;-76
2023/06/18 06:32:40;;;;;;;;;24.75;24.75;;;;;;;;5052026;28;8984;-79
2023/06/18 06:35:08;;;;;;;;;21.00;21.00;;;;;;;;5050854;28;8956;-78
2023/06/18 06:37:35;;;;;;;;;27.75;23.75;;;;;;;;5050093;28;8879;-78
2023/06/18 06:40:03;;;;;;;;;22.25;22.25;;;;;;;;5051352;28;9003;-77
2023/06/18 06:42:31;;;;;;;;;26.00;25.00;;;;;;;;5059900;28;8835;-75
2023/06/18 06:45:00;;;;;;;;;25.50;25.50;;;;;;;;5051674;28;8864;-74
2023/06/18 06:47:28;;;;;;;;;21.00;21.00;;;;;;;;5050254;28;8861;-80
2023/06/18 06:49:55;;;;;;;;;24.00;23.00;;;;;;;;5050737;28;8857;-74
2023/06/18 06:52:23;;;;;;;;;24.00;24.00;;;;;;;;5047238;28;8867;-75
2023/06/18 06:54:51;;;;;;;;;24.00;22.50;;;;;;;;5050145;28;8850;-74
2023/06/18 06:57:18;;;;;;;;;22.25;22.25;;;;;;;;5053792;28;9592;-80
2023/06/18 06:59:48;;;;;;;;;28.25;27.75;;;;;;;;5058674;28;8903;-89
2023/06/18 07:02:18;;;;;;;;;23.25;23.25;;;;;;;;5061070;28;9189;-81
2023/06/18 07:04:47;;;;;;;;;21.50;21.50;;;;;;;;5053587;28;9592;-83
2023/06/18 07:07:15;;;;;;;;;20.25;19.00;;;;;;;;5051433;28;8934;-85
2023/06/18 07:09:42;;;;;;;;;24.75;24.75;;;;;;;;5061291;28;9783;-88
2023/06/18 07:12:11;;;;;;;;;22.50;22.00;;;;;;;;5050678;28;8930;-80
2023/06/18 07:14:38;;;;;;;;;17.75;17.75;;;;;;;;5051873;28;8859;-85
2023/06/18 07:17:06;;;;;;;;;24.00;24.00;;;;;;;;5047190;28;8841;-78
2023/06/18 07:19:33;;;;;;;;;21.25;21.00;;;;;;;;5050842;28;8849;-82
2023/06/18 07:22:01;;;;;;;;;21.50;20.50;;;;;;;;5050530;28;8862;-81
2023/06/18 07:24:29;;;;;;;;;24.60;22.20;;;;;;;;5050532;28;8853;-85
2023/06/18 07:26:57;;;;;;;;;17.60;17.60;;;;;;;;5050590;28;8857;-74
2023/06/18 07:29:25;;;;;;;;;25.40;24.40;;;;;;;;5051069;28;8895;-81
2023/06/18 07:31:52;;;;;;;;;19.60;19.60;;;;;;;;5055320;28;8817;-88
2023/06/18 07:34:19;;;;;;;;;21.60;21.60;;;;;;;;5051646;28;8975;-90
2023/06/18 07:36:46;;;;;;;;;19.80;19.80;;;;;;;;5054322;28;8861;-85
2023/06/18 07:39:15;;;;;;;;;23.00;22.60;;;;;;;;5057890;28;8887;-91
2023/06/18 07:41:47;;;;;;;;;20.80;20.80;;;;;;;;5057416;28;8938;-84
2023/06/18 07:44:14;;;;;;;;;21.20;19.80;;;;;;;;5053032;28;8995;-77
2023/06/18 07:46:42;;;;;;;;;20.00;20.00;;;;;;;;5050349;28;8868;-85
2023/06/18 07:49:10;;;;;;;;;19.20;19.00;;;;;;;;5063136;28;8915;-77
2023/06/18 07:51:37;;;;;;;;;20.40;20.40;;;;;;;;5055448;28;8841;-78
2023/06/18 07:54:04;;;;;;;;;19.20;18.40;;;;;;;;5057107;28;9007;-85
2023/06/18 07:56:33;;;;;;;;;12.40;10.80;;;;;;;;5062091;28;9588;-83
2023/06/18 07:59:00;;;;;;;;;23.00;19.60;;;;;;;;5056410;28;8942;-84
2023/06/18 08:01:30;;;;;;;;;24.20;22.60;;;;;;;;5049676;28;8825;-75
2023/06/18 08:03:58;;;;;;;;;24.00;20.20;;;;;;;;5049208;28;8869;-81
2023/06/18 08:06:25;;;;;;;;;20.00;20.00;;;;;;;;5049598;28;8866;-85
2023/06/18 08:08:53;;;;;;;;;20.40;19.20;;;;;;;;5049830;28;8866;-72
2023/06/18 08:11:20;;;;;;;;;19.40;19.40;;;;;;;;5048744;28;9732;-79
2023/06/18 08:13:49;;;;;;;;;19.00;19.00;;;;;;;;5048738;28;8846;-81
2023/06/18 08:16:18;;;;;;;;;16.80;16.60;;;;;;;;5049595;28;9309;-77
2023/06/18 08:18:45;;;;;;;;;19.80;19.80;;;;;;;;5054190;28;8878;-87
2023/06/18 08:21:13;;;;;;;;;19.20;17.80;;;;;;;;5056903;28;8829;-76
2023/06/18 08:23:40;;;;;;;;;15.00;15.00;;;;;;;;5054112;28;8861;-77
2023/06/18 08:26:07;;;;;;;;;20.00;17.20;;;;;;;;5056402;28;9550;-79
2023/06/18 08:28:34;;;;;;;;;18.80;18.80;;;;;;;;5059678;28;8843;-73
2023/06/18 08:31:03;;;;;;;;;19.20;18.20;;;;;;;;5053903;28;8941;-72
2023/06/18 08:33:30;;;;;;;;;20.00;20.00;;;;;;;;5057073;28;8863;-74
2023/06/18 08:35:57;;;;;;;;;21.60;19.00;;;;;;;;5050198;28;8869;-78
2023/06/18 08:38:27;;;;;;;;;15.40;15.40;;;;;;;;5053885;28;8946;-78
2023/06/18 08:41:01;;;;;;;;;19.20;18.40;;;;;;;;5053012;28;8860;-79
2023/06/18 08:43:32;;;;;;;;;17.00;17.00;;;;;;;;5044796;28;8937;-72
2023/06/18 08:46:05;;;;;;;;;19.80;19.80;;;;;;;;5051839;28;8891;-80
2023/06/18 08:48:32;;;;;;;;;19.20;19.20;;;;;;;;5059363;28;8851;-77
2023/06/18 08:51:05;;;;;;;;;21.60;21.60;;;;;;;;5053433;28;8868;-76
2023/06/18 08:53:39;;;;;;;;;21.80;19.40;;;;;;;;5049666;28;8861;-85
2023/06/18 08:56:08;;;;;;;;;15.80;15.40;;;;;;;;5063502;28;8894;-86
2023/06/18 08:58:41;;;;;;;;;17.00;17.00;;;;;;;;5055459;28;8858;-86
2023/06/18 09:01:09;;;;;;;;;15.80;15.80;;;;;;;;5042561;28;8818;-90
2023/06/18 09:03:38;;;;;;;;;18.60;18.60;;;;;;;;5047762;28;8984;-86
2023/06/18 09:06:06;;;;;;;;;18.80;18.80;;;;;;;;5057954;28;8873;-87
2023/06/18 09:08:34;;;;;;;;;16.80;16.80;;;;;;;;5055165;28;8869;-83
2023/06/18 09:11:04;;;;;;;;;17.40;17.40;;;;;;;;5051880;28;8932;-92
2023/06/18 09:13:31;;;;;;;;;20.20;20.20;;;;;;;;5053935;28;8873;-95
2023/06/18 09:15:58;;;;;;;;;27.00;25.20;;;;;;;;5053404;28;8931;-90
2023/06/18 09:18:27;;;;;;;;;23.60;20.20;;;;;;;;5053198;28;8879;-79
2023/06/18 09:20:54;;;;;;;;;18.80;18.80;;;;;;;;5052649;28;9067;-81
2023/06/18 09:23:22;;;;;;;;;17.80;17.80;;;;;;;;5052472;28;9016;-78
2023/06/18 09:25:56;;;;;;;;;21.20;21.20;;;;;;;;5053896;28;8875;-80
2023/06/18 09:28:23;;;;;;;;;21.00;21.00;;;;;;;;5054915;28;8854;-79
2023/06/18 09:30:52;;;;;;;;;23.20;19.40;;;;;;;;5059628;28;8806;-80
2023/06/18 09:33:30;;;;;;;;;19.80;19.80;;;;;;;;5047709;28;8861;-83
2023/06/18 09:36:00;;;;;;;;;22.60;22.60;;;;;;;;5046803;28;8869;-79
2023/06/18 09:38:34;;;;;;;;;19.20;17.20;;;;;;;;5046779;28;9615;-76
2023/06/18 09:41:01;;;;;;;;;17.40;17.40;;;;;;;;5048168;28;8837;-79
2023/06/18 09:43:34;;;;;;;;;19.00;16.60;;;;;;;;5052383;28;8962;-82
2023/06/18 09:46:06;;;;;;;;;18.00;18.00;;;;;;;;5048084;28;8857;-79
2023/06/18 09:48:35;;;;;;;;;20.00;20.00;;;;;;;;5047056;28;8822;-85
2023/06/18 09:51:03;;;;;;;;;17.80;17.80;;;;;;;;5051037;28;8858;-75
2023/06/18 09:53:30;;;;;;;;;19.20;19.20;;;;;;;;5049887;28;8860;-81
2023/06/18 09:56:11;;;;;;;;;20.00;18.80;;;;;;;;5048101;28;8900;-82
2023/06/18 09:58:43;;;;;;;;;23.40;21.40;;;;;;;;5047231;28;8869;-79
2023/06/18 10:01:10;;;;;;;;;22.40;21.00;;;;;;;;5046668;28;8930;-81
2023/06/18 10:03:39;;;;;;;;;26.80;25.80;;;;;;;;5047262;28;8895;-77
2023/06/18 10:06:13;;;;;;;;;23.60;22.00;;;;;;;;5049500;28;8862;-82
2023/06/18 10:08:43;;;;;;;;;20.60;20.60;;;;;;;;5039903;28;8991;-76
2023/06/18 10:11:14;;;;;;;;;19.40;19.40;;;;;;;;5047233;28;8849;-76
2023/06/18 10:13:46;;;;;;;;;25.60;25.60;;;;;;;;5048681;28;8901;-76
2023/06/18 10:16:15;;;;;;;;;21.20;19.60;;;;;;;;5048169;28;8872;-76
2023/06/18 10:18:56;;;;;;;;;21.20;21.20;;;;;;;;5048584;28;8826;-76
2023/06/18 10:21:24;;;;;;;;;20.00;20.00;;;;;;;;5050251;28;8849;-75
2023/06/18 10:24:03;;;;;;;;;23.40;21.00;;;;;;;;5061369;28;8853;-76
2023/06/18 10:26:31;;;;;;;;;21.20;21.20;;;;;;;;5048719;28;8872;-76
2023/06/18 10:28:58;;;;;;;;;18.40;17.60;;;;;;;;5046749;28;8921;-77
2023/06/18 10:31:26;;;;;;;;;16.00;16.00;;;;;;;;5059716;28;8813;-76
2023/06/18 10:33:55;;;;;;;;;19.40;19.40;;;;;;;;5052149;28;8857;-76
2023/06/18 10:36:23;;;;;;;;;22.00;21.60;;;;;;;;5052353;28;8857;-76
2023/06/18 10:38:53;;;;;;;;;20.00;19.00;;;;;;;;5051593;28;8863;-76
2023/06/18 10:41:24;;;;;;;;;22.20;21.60;;;;;;;;5063242;28;8872;-76
2023/06/18 10:43:56;;;;;;;;;17.60;17.60;;;;;;;;5052213;28;8965;-76
2023/06/18 10:46:23;;;;;;;;;19.00;19.00;;;;;;;;5052608;28;8864;-76
2023/06/18 10:49:22;;;;;;;;;17.60;17.60;;;;;;;;5063759;28;9626;-75
2023/06/18 10:52:23;;;;;;;;;21.20;21.20;;;;;;;;4973263;28;8855;-75
2023/06/18 10:54:54;;;;;;;;;9.80;9.80;;;;;;;;5053837;28;8967;-76
2023/06/18 10:57:26;;;;;;;;;17.00;16.80;;;;;;;;5065510;28;8834;-76
2023/06/18 10:59:53;;;;;;;;;17.40;17.40;;;;;;;;5062614;28;8859;-76
2023/06/18 11:02:32;;;;;;;;;15.60;15.60;;;;;;;;5064579;28;8816;-75
2023/06/18 11:05:01;;;;;;;;;16.80;16.80;;;;;;;;5059824;28;9622;-76
2023/06/18 11:07:30;;;;;;;;;15.80;15.00;;;;;;;;5065335;28;8886;-75
2023/06/18 11:09:59;;;;;;;;;17.20;17.20;;;;;;;;5049876;28;8876;-76
2023/06/18 11:12:28;;;;;;;;;16.40;14.60;;;;;;;;5050194;28;8849;-76
2023/06/18 11:15:22;;;;;;;;;19.80;18.60;;;;;;;;5051076;28;8983;-75
2023/06/18 11:17:52;;;;;;;;;16.40;16.40;;;;;;;;4993764;28;8881;-75
2023/06/18 11:20:21;;;;;;;;;15.40;15.40;;;;;;;;5049537;28;8873;-75
2023/06/18 11:22:53;;;;;;;;;17.40;17.40;;;;;;;;5049556;28;8905;-75
2023/06/18 11:25:24;;;;;;;;;40.40;35.60;;;;;;;;5054110;28;8855;-75
2023/06/18 11:28:00;;;;;;;;;26.40;25.20;;;;;;;;5057096;28;8845;-75
2023/06/18 11:30:27;;;;;;;;;16.60;16.60;;;;;;;;5048931;28;9652;-74
2023/06/18 11:32:54;;;;;;;;;20.80;20.80;;;;;;;;5062156;28;8850;-75
2023/06/18 11:35:26;;;;;;;;;22.20;22.20;;;;;;;;5050029;28;8837;-75
2023/06/18 11:37:55;;;;;;;;;15.60;15.60;;;;;;;;5050449;28;8866;-75
2023/06/18 11:40:23;;;;;;;;;25.60;25.60;;;;;;;;5059331;28;8899;-75
2023/06/18 11:42:52;;;;;;;;;16.20;14.40;;;;;;;;5048360;28;8861;-75
2023/06/18 11:45:20;;;;;;;;;22.20;19.80;;;;;;;;5058253;28;8863;-75
2023/06/18 11:47:49;;;;;;;;;19.00;19.00;;;;;;;;5065798;28;8967;-75
2023/06/18 11:50:16;;;;;;;;;19.20;18.80;;;;;;;;5067754;28;9275;-75
2023/06/18 11:52:46;;;;;;;;;16.60;16.60;;;;;;;;5054323;28;8830;-75
2023/06/18 11:55:14;;;;;;;;;19.80;19.80;;;;;;;;5067785;28;8854;-75
2023/06/18 11:57:41;;;;;;;;;16.40;16.40;;;;;;;;5065086;28;8843;-75
2023/06/18 12:00:10;;;;;;;;;15.40;13.80;;;;;;;;5066128;28;8888;-75
2023/06/18 12:02:39;;;;;;;;;13.60;13.60;;;;;;;;5053435;28;8862;-75
2023/06/18 12:05:07;;;;;;;;;15.80;15.20;;;;;;;;5054147;28;8835;-75
2023/06/18 12:07:35;;;;;;;;;20.00;19.00;;;;;;;;5049470;28;8995;-75
2023/06/18 12:10:09;;;;;;;;;18.00;16.60;;;;;;;;5049068;28;8853;-75
2023/06/18 12:12:46;;;;;;;;;17.40;15.80;;;;;;;;5048600;28;8889;-75
2023/06/18 12:15:19;;;;;;;;;17.60;17.60;;;;;;;;5049282;28;8880;-75
2023/06/18 12:17:57;;;;;;;;;14.20;14.20;;;;;;;;5049506;28;8893;-75
2023/06/18 12:20:28;;;;;;;;;15.60;15.60;;;;;;;;5053987;28;8839;-75
2023/06/18 12:22:56;;;;;;;;;14.40;14.40;;;;;;;;5058897;28;8862;-75
2023/06/18 12:25:27;;;;;;;;;15.00;15.00;;;;;;;;5053663;28;8841;-74
2023/06/18 12:27:55;;;;;;;;;14.80;14.00;;;;;;;;5051221;28;8868;-75
2023/06/18 12:30:28;;;;;;;;;15.20;14.60;;;;;;;;5051670;28;8705;-75
2023/06/18 12:33:06;;;;;;;;;17.00;17.00;;;;;;;;5053016;28;8861;-75
2023/06/18 12:35:34;;;;;;;;;14.80;14.80;;;;;;;;5060343;28;8855;-75
2023/06/18 12:38:04;;;;;;;;;16.00;16.00;;;;;;;;5057411;28;8977;-75
2023/06/18 12:40:35;;;;;;;;;16.60;16.60;;;;;;;;5052086;28;8896;-75
2023/06/18 12:43:09;;;;;;;;;16.40;15.00;;;;;;;;5050100;28;8988;-75
2023/06/18 12:45:36;;;;;;;;;15.80;15.80;;;;;;;;5048289;28;8931;-75
2023/06/18 12:48:11;;;;;;;;;15.60;15.60;;;;;;;;5054929;28;8877;-75
2023/06/18 12:50:43;;;;;;;;;11.20;11.20;;;;;;;;5063565;28;8858;-76
2023/06/18 12:53:15;;;;;;;;;17.00;17.00;;;;;;;;5055493;28;8944;-76
2023/06/18 12:55:44;;;;;;;;;8.80;8.80;;;;;;;;5053170;28;8903;-75
2023/06/18 12:58:16;;;;;;;;;16.80;15.00;;;;;;;;5067742;28;8890;-76
2023/06/18 13:00:44;;;;;;;;;15.00;15.00;;;;;;;;5051116;28;8796;-76
2023/06/18 13:03:11;;;;;;;;;15.40;15.40;;;;;;;;5049094;28;8830;-75
2023/06/18 13:05:39;;;;;;;;;17.40;15.80;;;;;;;;5050424;28;8915;-75
2023/06/18 13:08:06;;;;;;;;;15.40;15.40;;;;;;;;5048961;28;8968;-76
2023/06/18 13:10:33;;;;;;;;;14.80;14.80;;;;;;;;5049913;28;8864;-75
2023/06/18 13:13:02;;;;;;;;;11.60;11.20;;;;;;;;5048413;28;8885;-75
2023/06/18 13:15:29;;;;;;;;;14.20;14.20;;;;;;;;5048785;28;8923;-76
2023/06/18 13:17:56;;;;;;;;;18.20;15.00;;;;;;;;5048463;28;9646;-75
2023/06/18 13:20:24;;;;;;;;;9.60;9.60;;;;;;;;5049358;28;8873;-76
2023/06/18 13:22:51;;;;;;;;;12.40;12.40;;;;;;;;5048504;28;8887;-75
2023/06/18 13:25:18;;;;;;;;;12.00;11.20;;;;;;;;5052687;28;9703;-75
2023/06/18 13:27:45;;;;;;;;;12.40;12.40;;;;;;;;5057031;28;8876;-75
2023/06/18 13:30:15;;;;;;;;;14.80;12.80;;;;;;;;5052614;28;8851;-76
2023/06/18 13:32:42;;;;;;;;;13.60;13.40;;;;;;;;5055849;28;8873;-76
2023/06/18 13:35:09;;;;;;;;;13.40;13.40;;;;;;;;5048774;28;8926;-76
2023/06/18 13:37:37;;;;;;;;;12.00;12.00;;;;;;;;5047739;28;8861;-76
2023/06/18 13:40:05;;;;;;;;;13.00;13.00;;;;;;;;5047727;28;8853;-76
2023/06/18 13:42:32;;;;;;;;;12.60;12.60;;;;;;;;5048064;28;8869;-76
2023/06/18 13:44:59;;;;;;;;;11.40;11.40;;;;;;;;5059830;28;8868;-76
2023/06/18 13:47:28;;;;;;;;;15.00;13.00;;;;;;;;5048707;28;8850;-76
2023/06/18 13:49:55;;;;;;;;;11.20;11.20;;;;;;;;5049545;28;8865;-76
2023/06/18 13:52:23;;;;;;;;;14.80;14.80;;;;;;;;5049868;28;8865;-76
2023/06/18 13:54:50;;;;;;;;;11.20;11.20;;;;;;;;5048465;28;9659;-76
2023/06/18 13:57:18;;;;;;;;;13.80;13.80;;;;;;;;5049030;28;8861;-76
2023/06/18 13:59:46;;;;;;;;;12.00;12.00;;;;;;;;5046165;28;8835;-75
2023/06/18 14:02:13;;;;;;;;;12.20;12.20;;;;;;;;5054541;28;8820;-76
2023/06/18 14:04:43;;;;;;;;;10.80;10.80;;;;;;;;5051085;28;8853;-75
2023/06/18 14:07:10;;;;;;;;;13.00;11.20;;;;;;;;5053496;28;8876;-75
2023/06/18 14:09:38;;;;;;;;;10.20;10.20;;;;;;;;5061553;28;8851;-75
2023/06/18 14:12:06;;;;;;;;;11.40;11.40;;;;;;;;5064349;28;8869;-76
2023/06/18 14:14:34;;;;;;;;;12.20;11.20;;;;;;;;5057477;28;8870;-75
2023/06/18 14:17:04;;;;;;;;;9.40;9.40;;;;;;;;5062317;28;8835;-76
2023/06/18 14:19:32;;;;;;;;;10.40;10.40;;;;;;;;5058334;28;8920;-76
2023/06/18 14:22:00;;;;;;;;;8.80;8.80;;;;;;;;5057978;28;8908;-75
2023/06/18 14:24:27;;;;;;;;;9.20;9.20;;;;;;;;5067587;28;8865;-76
2023/06/18 14:26:55;;;;;;;;;13.20;13.20;;;;;;;;5053933;28;9168;-75
2023/06/18 14:29:22;;;;;;;;;10.00;10.00;;;;;;;;5050775;28;8850;-75
2023/06/18 14:31:49;;;;;;;;;9.00;9.00;;;;;;;;5050048;28;8938;-75
2023/06/18 14:34:16;;;;;;;;;10.80;10.80;;;;;;;;5062971;28;8859;-75
2023/06/18 14:36:44;;;;;;;;;8.60;8.60;;;;;;;;5060416;28;8846;-75
2023/06/18 14:39:12;;;;;;;;;10.80;10.80;;;;;;;;5063065;28;8838;-75
2023/06/18 14:41:39;;;;;;;;;10.40;10.40;;;;;;;;5065631;28;8874;-75